Tropical Cyclones
[Index]
Main Index Home Page Stock Weather Photos Extreme Storms Discussion Storm News and Storm Chasing Reports Tropical Cyclones / Hurricanes / Typhoons Weather Data and Links Wild Fires / Bushfires Weather Observation Techniques Weather Picture Catalogue Tornado Pictures and Reports Stock Video Footage and DVDs for sale
Season 2000-2001 Tropical Cyclone VINCENT Track Map
Season 2000-2001 Summaries: [BoM-AU] [JTWC-AU] [JTWC-SIO] [JTWC-SPAC] [JTWC-SH]
<<- Previous TC | JTWC 2000-2001 Season | Next TC ->>

click for intensity scale information  Lat/long Grid: Show Hide

 Date Labels: Show Hide

Joint Typhoon Warning Centre Cyclone Data

Name: VINCENT

07 Feb 2001 18:00 UTC to 15 Feb 2001 18:00 UTC

    date/time    lat    long     hPa   cat  kts
2001-02-07 18   13.3   116.8                  25          
2001-02-08 00   13.4   116.4                  25          
2001-02-08 06   13.6   115.9                  25          
2001-02-08 12   13.8   115.3                  25          
2001-02-08 18   14.1   114.8                  25          
2001-02-09 00   14.5   114.4                  30          
2001-02-09 06   14.8   114.0                  30          
2001-02-09 12   14.9   113.7                  25          
2001-02-09 18   14.9   113.3                  25          
2001-02-10 00   15.0   112.9                  25          
2001-02-10 06   15.2   112.6                  30          
2001-02-10 12   15.4   112.3                  30          
2001-02-10 18   15.6   112.2                  30          
2001-02-11 00   15.8   112.2                  25          
2001-02-11 06   15.9   112.3                  25          
2001-02-11 12   16.0   112.3                  25          
2001-02-11 18   15.8   111.9                  25          
2001-02-12 00   15.5   111.4                  30          
2001-02-12 06   15.2   111.4                  30          
2001-02-12 12   14.8   111.9                  35          
2001-02-12 18   14.7   112.8                  35          
2001-02-13 00   14.8   113.9                  35          
2001-02-13 06   15.1   115.1                  35          
2001-02-13 12   15.4   116.1                  35          
2001-02-13 18   15.6   117.0                  35          
2001-02-14 00   15.9   117.9                  35          
2001-02-14 06   16.1   118.6                  35          
2001-02-14 12   16.4   119.3                  35          
2001-02-14 18   16.7   119.8                  35          
2001-02-15 00   17.0   120.1                  35          
2001-02-15 06   17.6   120.3                  35          
2001-02-15 12   18.6   120.9                  35          
2001-02-15 18   19.7   121.8                  30          
Winds are 1-min average.

Tropical cyclone tracks developed by Michael Bath using data from the Joint Typhoon Warning Centre Best Tracks and Google Maps.


[Australian Severe Weather index] [Copyright Notice] [Email Contacts] [Search This Site] [Privacy Policy]
Document: tropical_cyclone_vincent.htm Updated: 28 June 2017